Time;durP1;ratioP1;P1;durP2;ratioP2;P2;SDS_P1;SDS_P2;PMS_P1;PMS_P2;Temp;Humidity;BMP_temperature;BMP_pressure;BME280_temperature;BME280_humidity;BME280_pressure;Samples;Min_cycle;Max_cycle;Signal;HPM_P1;HPM_P2
2022/01/29 00:05:18;;;;;;;18.82;8.68;;;;;;;-0.03;97.96;99936.58;4020584;85;21114;-90
2022/01/29 00:11:26;;;;;;;19.27;8.95;;;;;;;-0.05;97.68;99932.83;3988056;86;21060;-90
2022/01/29 00:17:24;;;;;;;23.30;9.63;;;;;;;-0.08;97.85;99929.92;4030098;86;22220;-91
2022/01/29 00:23:26;;;;;;;21.62;9.95;;;;;;;-0.10;97.68;99936.94;3998519;86;21629;-90
2022/01/29 00:29:27;;;;;;;22.48;10.85;;;;;;;-0.14;97.85;99937.76;4019809;86;21068;-90
2022/01/29 00:35:53;;;;;;;26.50;10.45;;;;;;;-0.15;97.79;99946.92;4007228;86;21155;-89
2022/01/29 00:41:55;;;;;;;21.05;7.45;;;;;;;-0.17;97.61;99960.66;4017714;86;21101;-90
2022/01/29 00:47:56;;;;;;;23.30;7.92;;;;;;;-0.23;97.10;99955.59;3973464;87;21119;-90
2022/01/29 00:53:58;;;;;;;20.75;7.37;;;;;;;-0.43;96.43;99944.46;4001985;86;21135;-89
2022/01/29 00:59:59;;;;;;;20.35;8.13;;;;;;;-0.43;96.43;99944.46;4006982;87;21643;-90
2022/01/29 01:06:01;;;;;;;17.77;7.78;;;;;;;-0.44;96.62;99964.92;4025948;86;21775;-90
2022/01/29 01:12:03;;;;;;;15.18;6.70;;;;;;;-0.56;96.53;99965.78;4021459;85;21138;-89
2022/01/29 01:18:05;;;;;;;18.80;7.22;;;;;;;-0.68;96.45;99951.88;4034087;86;21759;-90
2022/01/29 01:24:06;;;;;;;19.77;7.42;;;;;;;-0.78;96.50;99947.37;4031729;85;21081;-89
2022/01/29 01:30:09;;;;;;;18.57;7.35;;;;;;;-0.92;96.48;99934.80;3999383;86;21764;-88
2022/01/29 01:36:10;;;;;;;16.42;7.03;;;;;;;-0.99;96.51;99931.11;3942525;88;21183;-88
2022/01/29 01:42:13;;;;;;;17.32;8.00;;;;;;;-1.08;96.49;99934.08;3950573;88;21080;-87
2022/01/29 01:48:15;;;;;;;14.47;6.37;;;;;;;-1.16;96.16;99917.75;4049780;87;21007;-88
2022/01/29 01:54:22;;;;;;;16.12;6.45;;;;;;;-1.16;96.16;99917.75;4030460;85;21078;-88
2022/01/29 02:00:31;;;;;;;18.73;7.05;;;;;;;-1.23;96.34;99918.05;4033279;86;21058;-88
2022/01/29 02:06:33;;;;;;;16.93;6.47;;;;;;;-1.30;96.20;99912.71;4052382;84;21067;-88
2022/01/29 02:12:58;;;;;;;10.60;5.77;;;;;;;-1.43;96.08;99923.50;4031837;85;21245;-88
2022/01/29 02:18:59;;;;;;;17.02;6.87;;;;;;;-1.51;96.14;99920.56;4004575;86;21142;-87
2022/01/29 02:25:00;;;;;;;19.77;7.10;;;;;;;-1.59;96.22;99919.25;4024401;86;21041;-87
2022/01/29 02:31:03;;;;;;;26.73;7.60;;;;;;;-1.64;96.17;99918.73;4035494;86;21116;-86
2022/01/29 02:37:05;;;;;;;17.43;7.60;;;;;;;-1.65;96.26;99925.19;4013560;86;21087;-88
2022/01/29 02:49:44;;;;;;;20.17;7.93;;;;;;;-1.76;96.13;99942.92;4036729;86;21714;-88
2022/01/29 02:55:45;;;;;;;21.10;7.53;;;;;;;-1.78;96.16;99940.52;4062457;85;50780;-89
2022/01/29 03:01:46;;;;;;;20.13;7.63;;;;;;;-1.76;96.11;99945.08;4137038;85;21059;-88
2022/01/29 03:07:48;;;;;;;17.30;7.13;;;;;;;-1.74;96.22;99937.54;4147327;84;21073;-89
2022/01/29 03:13:50;;;;;;;14.67;6.97;;;;;;;-1.70;96.41;99936.46;4140097;84;21644;-88
2022/01/29 03:19:53;;;;;;;17.10;6.80;;;;;;;-1.68;96.20;99926.27;4100622;84;21565;-89
2022/01/29 03:25:55;;;;;;;15.40;6.73;;;;;;;-1.74;96.05;99932.17;4108676;85;21135;-87
2022/01/29 03:31:58;;;;;;;22.87;8.27;;;;;;;-1.80;96.03;99917.69;4098921;85;21075;-87
2022/01/29 03:37:59;;;;;;;19.23;7.60;;;;;;;-1.81;95.85;99914.74;4163948;84;21109;-87
2022/01/29 03:44:05;;;;;;;19.53;7.80;;;;;;;-1.85;95.97;99906.98;4178436;84;21501;-86
2022/01/29 03:50:17;;;;;;;;;;;;;;;-1.88;95.74;99913.68;4161238;84;21288;-86
2022/01/29 03:56:19;;;;;;;20.33;7.97;;;;;;;-1.90;95.70;99911.02;4195961;83;20209;-86
2022/01/29 04:02:20;;;;;;;18.57;8.17;;;;;;;-1.97;95.71;99909.95;4156501;84;21055;-86
2022/01/29 04:08:21;;;;;;;25.83;9.77;;;;;;;-1.99;95.65;99908.63;4139097;84;21095;-86
2022/01/29 04:14:32;;;;;;;25.43;9.80;;;;;;;-2.02;95.57;99901.12;4158516;84;21639;-85
2022/01/29 04:20:30;;;;;;;22.30;9.77;;;;;;;-2.04;95.45;99896.02;4159867;83;21052;-85
2022/01/29 04:26:34;;;;;;;25.97;9.67;;;;;;;-2.10;95.31;99894.95;4149393;83;21642;-85
2022/01/29 04:38:42;;;;;;;19.53;8.30;;;;;;;-2.19;95.14;99900.05;4163783;84;21130;-85
2022/01/29 04:44:44;;;;;;;17.77;8.27;;;;;;;-2.23;95.13;99898.99;4163751;83;21609;-85
2022/01/29 04:50:45;;;;;;;25.70;8.77;;;;;;;-2.26;94.99;99896.04;4154854;84;21106;-85
2022/01/29 04:56:46;;;;;;;36.20;10.87;;;;;;;-2.30;95.09;99893.08;4168589;83;21533;-85
2022/01/29 05:02:56;;;;;;;26.67;9.73;;;;;;;-2.32;95.00;99894.44;4152532;84;21043;-85
2022/01/29 05:08:57;;;;;;;20.20;8.43;;;;;;;-2.34;95.03;99879.14;4151559;84;21536;-85
2022/01/29 05:27:35;;;;;;;27.00;8.47;;;;;;;-2.40;94.78;99846.70;4038282;86;21672;-85
2022/01/29 05:33:36;;;;;;;20.50;7.57;;;;;;;-2.45;94.78;99844.84;4055624;86;21629;-85
2022/01/29 05:39:38;;;;;;;18.80;7.60;;;;;;;-2.49;94.80;99845.09;4053430;86;21080;-86
2022/01/29 05:45:39;;;;;;;22.03;7.90;;;;;;;-2.51;94.82;99844.58;4053713;86;21074;-86
2022/01/29 05:51:44;;;;;;;26.73;8.37;;;;;;;-2.55;94.79;99852.09;4063655;86;21094;-86
2022/01/29 05:57:48;;;;;;;22.03;8.30;;;;;;;-2.59;94.73;99838.41;4029273;86;21560;-85
2022/01/29 06:03:49;;;;;;;28.63;10.10;;;;;;;-2.60;94.92;99852.09;4054426;86;21078;-86
2022/01/29 06:09:53;;;;;;;27.17;9.27;;;;;;;-2.65;94.73;99842.17;4055415;86;21610;-85
2022/01/29 06:16:02;;;;;;;27.57;9.07;;;;;;;-2.68;94.69;99841.91;4061251;86;21363;-85
2022/01/29 06:22:24;;;;;;;30.43;9.73;;;;;;;-2.71;94.76;99833.84;4075390;85;21090;-85
2022/01/29 06:28:41;;;;;;;25.83;10.00;;;;;;;-2.72;94.76;99834.11;4025724;86;21102;-84
2022/01/29 06:34:42;;;;;;;22.10;10.43;;;;;;;-2.76;94.89;99840.56;4034456;85;21687;-85
2022/01/29 06:40:51;;;;;;;33.40;11.60;;;;;;;-2.73;95.37;99840.03;4044606;86;21818;-84
2022/01/29 06:46:53;;;;;;;34.60;11.93;;;;;;;-2.61;95.60;99835.72;3983312;87;21478;-85
2022/01/29 06:52:58;;;;;;;28.53;10.07;;;;;;;-2.49;95.76;99828.23;3989391;87;21136;-85
2022/01/29 06:59:01;;;;;;;19.83;9.17;;;;;;;-2.37;95.83;99820.69;3983281;86;21097;-84
2022/01/29 07:11:41;;;;;;;32.17;12.67;;;;;;;-2.11;95.75;99810.16;3960880;88;21106;-85
2022/01/29 07:17:48;;;;;;;32.70;14.33;;;;;;;-1.93;95.82;99797.52;3949354;88;21421;-85
2022/01/29 07:23:50;;;;;;;37.07;13.97;;;;;;;-1.78;95.58;99792.08;3974975;88;21092;-85
2022/01/29 07:29:52;;;;;;;30.93;13.30;;;;;;;-1.73;95.36;99794.74;4058436;86;21110;-85
2022/01/29 07:35:56;;;;;;;26.77;11.90;;;;;;;-1.69;95.08;99793.10;4022664;84;21071;-85
2022/01/29 07:41:58;;;;;;;27.87;11.63;;;;;;;-1.59;94.93;99795.75;4039997;84;21100;-85
2022/01/29 07:48:00;;;;;;;37.47;14.73;;;;;;;-1.43;95.10;99784.38;4050725;85;21021;-86
2022/01/29 07:54:04;;;;;;;37.77;15.97;;;;;;;-1.15;95.95;99772.39;4025777;83;21111;-86
2022/01/29 08:00:09;;;;;;;37.87;15.63;;;;;;;-0.43;96.59;99766.92;4016363;85;72882;-93
2022/01/29 08:06:19;;;;;;;30.92;12.93;;;;;;;0.30;96.86;99755.86;3988372;87;21168;-93
2022/01/29 08:12:20;;;;;;;26.70;11.00;;;;;;;1.04;96.71;99739.11;4144239;84;21111;-93
2022/01/29 08:18:21;;;;;;;20.50;7.87;;;;;;;1.72;94.88;99733.06;4167987;83;21047;-93
2022/01/29 08:24:26;;;;;;;17.80;7.17;;;;;;;2.29;94.85;99731.06;4148652;83;21535;-93
2022/01/29 08:30:30;;;;;;;19.73;6.45;;;;;;;2.07;92.59;99730.45;4138994;83;21054;-92
2022/01/29 08:36:33;;;;;;;16.32;5.67;;;;;;;2.06;92.52;99724.00;4159404;83;21060;-92
2022/01/29 08:42:50;;;;;;;13.35;5.72;;;;;;;2.45;92.73;99714.78;4156645;84;21625;-93
2022/01/29 08:48:51;;;;;;;20.52;6.47;;;;;;;2.74;91.26;99703.82;4135754;83;21047;-94
2022/01/29 08:55:08;;;;;;;18.37;8.28;;;;;;;3.37;92.24;99698.77;4090040;85;21067;-93
2022/01/29 09:01:25;;;;;;;;;;;;;;;4.33;92.65;99684.09;4161107;83;21583;-93
2022/01/29 09:07:44;;;;;;;19.00;5.10;;;;;;;5.19;90.71;99687.02;4117967;84;20142;-93
2022/01/29 09:13:46;;;;;;;14.73;4.17;;;;;;;5.43;89.72;99677.78;4166327;83;21087;-93
2022/01/29 09:19:48;;;;;;;11.33;4.30;;;;;;;5.82;89.13;99677.50;4157327;84;21050;-93
2022/01/29 09:25:50;;;;;;;15.08;5.50;;;;;;;6.06;88.09;99664.08;4127736;83;21115;-93
2022/01/29 09:31:52;;;;;;;13.03;4.10;;;;;;;5.99;80.29;99666.53;4121799;83;21033;-92
2022/01/29 09:37:56;;;;;;;10.58;4.30;;;;;;;5.94;84.47;99658.56;4140168;84;22331;-93
2022/01/29 09:43:59;;;;;;;9.15;3.90;;;;;;;6.07;81.19;99652.10;4151749;84;21062;-92
2022/01/29 09:50:00;;;;;;;12.53;4.03;;;;;;;6.60;84.08;99644.59;4120461;84;21609;-93
2022/01/29 09:56:09;;;;;;;9.78;3.42;;;;;;;6.91;81.20;99632.70;4108477;84;21100;-93
2022/01/29 10:02:19;;;;;;;13.05;3.83;;;;;;;7.26;82.66;99620.87;4141456;84;21141;-93
2022/01/29 10:08:23;;;;;;;16.35;3.70;;;;;;;7.54;81.43;99609.56;4159727;83;21080;-92
2022/01/29 10:14:24;;;;;;;10.78;3.75;;;;;;;7.94;78.46;99584.55;4133470;83;21086;-94
2022/01/29 10:20:29;;;;;;;8.68;3.60;;;;;;;8.19;75.68;99581.23;4127830;83;21109;-92
2022/01/29 10:26:41;;;;;;;9.30;3.00;;;;;;;7.55;76.04;99573.80;4148640;83;21038;-94
2022/01/29 10:32:42;;;;;;;8.83;3.60;;;;;;;7.11;76.48;99575.26;4137548;83;21722;-92
2022/01/29 10:38:55;;;;;;;9.23;3.70;;;;;;;7.59;77.12;99564.39;4051405;86;21086;-93
2022/01/29 10:45:02;;;;;;;7.35;2.83;;;;;;;7.83;71.20;99551.52;4153453;84;21587;-93
2022/01/29 10:51:14;;;;;;;7.20;3.37;;;;;;;7.68;63.97;99552.80;4153632;84;21191;-93
2022/01/29 10:57:18;;;;;;;9.58;2.90;;;;;;;6.40;67.85;99545.55;4160891;83;21180;-93
2022/01/29 11:03:23;;;;;;;8.00;3.08;;;;;;;6.03;69.05;99537.55;4131140;83;21156;-93
2022/01/29 11:09:27;;;;;;;9.45;4.25;;;;;;;5.87;70.38;99524.35;4145911;83;21067;-92
2022/01/29 11:15:30;;;;;;;10.85;4.75;;;;;;;5.64;68.07;99529.26;4121988;83;21102;-93
2022/01/29 11:21:34;;;;;;;12.53;4.67;;;;;;;5.26;68.53;99505.43;4124750;84;21122;-92
2022/01/29 11:27:38;;;;;;;12.55;4.60;;;;;;;5.08;68.12;99502.58;4153983;84;21085;-92
2022/01/29 11:34:05;;;;;;;14.28;5.37;;;;;;;4.84;66.09;99477.94;4134595;84;22292;-91
2022/01/29 11:40:27;;;;;;;17.73;5.50;;;;;;;4.64;68.37;99452.34;4131891;83;21116;-92
2022/01/29 11:46:32;;;;;;;14.85;5.08;;;;;;;4.57;67.84;99437.13;4143175;83;21111;-90
2022/01/29 11:52:56;;;;;;;17.85;6.00;;;;;;;4.78;66.20;99420.93;4131010;84;21110;-93
2022/01/29 11:59:23;;;;;;;11.28;5.05;;;;;;;4.64;66.75;99397.30;4143754;84;21043;-92
2022/01/29 12:05:30;;;;;;;12.13;5.33;;;;;;;4.69;67.14;99380.31;4152375;84;21097;-90
2022/01/29 12:11:29;;;;;;;21.65;6.03;;;;;;;4.78;66.47;99373.47;4149449;84;21665;-91
2022/01/29 12:18:01;;;;;;;16.02;5.22;;;;;;;4.72;67.23;99360.66;4144681;83;21086;-92
2022/01/29 12:24:01;;;;;;;16.90;6.15;;;;;;;4.74;68.05;99338.64;4129515;83;21090;-90
2022/01/29 12:30:05;;;;;;;16.10;5.67;;;;;;;4.69;68.24;99327.42;4168439;83;21057;-89
2022/01/29 12:36:09;;;;;;;13.62;5.00;;;;;;;4.75;67.49;99317.97;4146925;83;21600;-91
2022/01/29 12:48:18;;;;;;;14.75;5.08;;;;;;;4.52;67.11;99304.48;4116428;84;21067;-90
2022/01/29 12:54:21;;;;;;;17.75;6.83;;;;;;;4.41;68.15;99283.48;4138236;83;21077;-90
2022/01/29 13:00:24;;;;;;;16.95;5.92;;;;;;;4.26;68.28;99279.41;4137847;83;21118;-94
2022/01/29 13:06:26;;;;;;;20.82;5.67;;;;;;;4.15;66.87;99274.12;4150711;83;21674;-90
2022/01/29 13:12:27;;;;;;;17.00;5.78;;;;;;;3.80;68.46;99256.98;4116879;84;21155;-90
2022/01/29 13:18:30;;;;;;;13.80;5.60;;;;;;;3.66;68.89;99250.98;4148477;83;21043;-91
2022/01/29 13:24:44;;;;;;;17.23;6.20;;;;;;;3.54;68.91;99244.09;4152313;84;21096;-90
2022/01/29 13:30:47;;;;;;;11.38;4.60;;;;;;;3.41;69.86;99228.83;4089832;84;21679;-91
2022/01/29 13:36:49;;;;;;;19.35;6.90;;;;;;;3.31;69.94;99226.45;4132349;83;21562;-90
2022/01/29 13:43:01;;;;;;;20.75;6.00;;;;;;;3.25;70.49;99217.72;4145473;83;21200;-91
2022/01/29 13:49:03;;;;;;;19.80;6.42;;;;;;;3.14;70.97;99214.56;4124439;84;21127;-91
2022/01/29 13:55:08;;;;;;;20.82;6.67;;;;;;;3.06;71.90;99209.96;4143980;83;21157;-91
2022/01/29 14:01:10;;;;;;;22.48;7.53;;;;;;;2.87;72.72;99190.57;4130599;84;21026;-91
2022/01/29 14:07:22;;;;;;;18.37;7.20;;;;;;;2.72;73.73;99181.60;4129413;83;21110;-92
2022/01/29 14:13:31;;;;;;;17.00;6.55;;;;;;;2.65;74.19;99161.00;4118490;83;21105;-91
2022/01/29 14:19:37;;;;;;;17.73;7.12;;;;;;;2.56;75.30;99150.76;4124793;83;22373;-91
2022/01/29 14:25:39;;;;;;;17.27;7.03;;;;;;;2.49;75.68;99145.02;4121445;84;21083;-91
2022/01/29 14:31:42;;;;;;;19.90;8.20;;;;;;;2.40;76.07;99121.27;4123684;84;21074;-91
2022/01/29 14:37:43;;;;;;;20.75;8.10;;;;;;;2.30;76.12;99102.66;4111880;84;21758;-91
2022/01/29 14:43:46;;;;;;;23.90;9.43;;;;;;;2.29;76.92;99092.98;4128009;84;21569;-91
2022/01/29 14:49:50;;;;;;;19.75;8.10;;;;;;;2.27;77.03;99081.69;4128124;83;21069;-91
2022/01/29 14:55:52;;;;;;;21.70;8.23;;;;;;;2.28;76.84;99064.39;4104257;84;21578;-90
2022/01/29 15:01:53;;;;;;;17.98;7.72;;;;;;;2.22;77.08;99058.12;4146695;83;21565;-92
2022/01/29 15:07:55;;;;;;;17.60;8.35;;;;;;;2.21;77.25;99042.45;4129140;83;21141;-91
2022/01/29 15:13:58;;;;;;;23.42;9.75;;;;;;;2.19;77.44;99031.20;4138853;84;21621;-91
2022/01/29 15:19:59;;;;;;;20.43;8.93;;;;;;;2.18;77.23;99012.04;4127434;84;21042;-92
2022/01/29 15:26:03;;;;;;;15.25;7.33;;;;;;;2.13;77.32;99008.14;4133612;83;21619;-91
2022/01/29 15:32:07;;;;;;;24.23;9.05;;;;;;;2.08;77.32;98994.03;4144025;83;21116;-91
2022/01/29 15:38:12;;;;;;;24.50;9.50;;;;;;;2.05;77.46;98977.89;4149828;83;21201;-91
2022/01/29 15:44:12;;;;;;;21.37;9.63;;;;;;;2.06;77.87;98951.69;4140518;83;21077;-93
2022/01/29 15:50:14;;;;;;;24.77;9.00;;;;;;;2.00;78.04;98937.58;4123875;83;21121;-91
2022/01/29 15:56:15;;;;;;;18.75;8.50;;;;;;;2.01;78.11;98932.95;4126518;84;21168;-92
2022/01/29 16:02:17;;;;;;;15.00;6.95;;;;;;;2.00;78.27;98917.33;4124442;84;21195;-92
2022/01/29 16:08:21;;;;;;;16.00;7.08;;;;;;;2.01;78.30;98901.91;4149517;84;22083;-91
2022/01/29 16:14:25;;;;;;;14.07;6.60;;;;;;;2.01;78.40;98897.30;4152011;84;21049;-90
2022/01/29 16:20:26;;;;;;;16.52;8.00;;;;;;;1.98;78.76;98891.20;4143532;83;21089;-91
2022/01/29 16:26:27;;;;;;;21.73;8.40;;;;;;;1.97;78.90;98889.63;4130387;83;21098;-91
2022/01/29 16:32:28;;;;;;;18.15;8.38;;;;;;;1.95;79.06;98877.00;4120421;84;21085;-91
2022/01/29 16:38:30;;;;;;;14.50;7.05;;;;;;;1.93;79.39;98873.81;4128928;83;21338;-92
2022/01/29 16:44:31;;;;;;;14.43;8.23;;;;;;;1.77;80.04;98861.94;4149491;84;21726;-90
2022/01/29 16:50:36;;;;;;;21.80;9.08;;;;;;;1.56;80.87;98845.64;4125992;84;21090;-90
2022/01/29 16:56:38;;;;;;;24.77;9.58;;;;;;;1.42;81.55;98847.72;4126560;84;21677;-91
2022/01/29 17:02:40;;;;;;;22.73;11.10;;;;;;;1.31;81.91;98839.71;4132679;83;21024;-92
2022/01/29 17:08:43;;;;;;;21.30;9.95;;;;;;;1.23;82.63;98820.83;4149933;84;21747;-93
2022/01/29 17:14:45;;;;;;;20.37;9.60;;;;;;;1.16;83.43;98821.30;4151536;83;21533;-91
2022/01/29 17:20:48;;;;;;;20.68;10.55;;;;;;;1.12;83.95;98804.19;4126188;83;21197;-92
2022/01/29 17:26:50;;;;;;;20.92;10.75;;;;;;;1.14;84.69;98788.46;4149303;83;21088;-90
2022/01/29 17:32:51;;;;;;;31.65;14.98;;;;;;;1.14;85.50;98760.73;4141961;83;21599;-90
2022/01/29 17:38:54;;;;;;;22.32;10.15;;;;;;;1.12;85.73;98750.27;4143022;83;21567;-93
2022/01/29 17:44:57;;;;;;;24.65;10.60;;;;;;;1.17;85.79;98722.34;4139012;83;21139;-92
2022/01/29 17:51:01;;;;;;;21.60;10.20;;;;;;;1.19;86.31;98712.04;4141091;83;21103;-91
2022/01/29 17:57:03;;;;;;;17.30;9.20;;;;;;;1.20;87.72;98678.56;4141439;83;21125;-91
2022/01/29 18:03:05;;;;;;;18.27;8.85;;;;;;;1.20;87.04;98667.78;4141099;83;21065;-91
2022/01/29 18:09:07;;;;;;;20.40;10.20;;;;;;;1.20;87.20;98661.84;4143674;83;21103;-91
2022/01/29 18:15:10;;;;;;;20.27;9.80;;;;;;;1.28;86.94;98649.44;4134926;84;21068;-90
2022/01/29 18:21:12;;;;;;;19.90;9.38;;;;;;;1.33;87.04;98625.00;4165097;83;21139;-92
2022/01/29 18:27:22;;;;;;;19.50;9.08;;;;;;;1.35;87.48;98585.79;4138321;83;21343;-91
2022/01/29 18:33:24;;;;;;;19.02;9.10;;;;;;;1.41;87.63;98552.67;4136624;84;21104;-91
2022/01/29 18:39:28;;;;;;;20.70;9.38;;;;;;;1.47;87.77;98546.00;4132483;83;21099;-91
2022/01/29 18:45:29;;;;;;;22.27;8.28;;;;;;;1.52;87.74;98532.30;4116288;84;21083;-91
2022/01/29 18:51:31;;;;;;;13.90;6.60;;;;;;;1.57;87.87;98514.03;4115719;84;21075;-92
2022/01/29 18:57:33;;;;;;;13.95;6.50;;;;;;;1.66;87.86;98512.61;4135458;84;21118;-92
2022/01/29 19:03:34;;;;;;;13.78;6.80;;;;;;;1.70;88.06;98527.05;4143777;84;21604;-91
2022/01/29 19:09:35;;;;;;;18.48;8.30;;;;;;;1.73;88.17;98544.47;4125425;84;21480;-92
2022/01/29 19:15:45;;;;;;;13.55;6.03;;;;;;;1.76;88.50;98545.16;4065684;85;21620;-91
2022/01/29 19:21:40;;;;;;;13.48;5.83;;;;;;;1.77;88.33;98526.52;4104245;84;21623;-91
2022/01/29 19:27:42;;;;;;;9.73;5.40;;;;;;;1.81;88.87;98545.78;4146859;84;21145;-91
2022/01/29 19:33:43;;;;;;;10.72;5.37;;;;;;;1.80;88.96;98530.71;4129051;84;21125;-91
2022/01/29 19:39:46;;;;;;;11.20;6.05;;;;;;;1.79;89.19;98521.56;4123891;83;21683;-91
2022/01/29 19:45:47;;;;;;;11.43;6.03;;;;;;;1.83;89.07;98530.05;4136631;84;21145;-92
2022/01/29 19:51:48;;;;;;;11.88;5.87;;;;;;;1.90;89.23;98524.10;4141924;84;21085;-91
2022/01/29 19:57:50;;;;;;;18.40;7.85;;;;;;;1.94;89.33;98503.45;4127927;84;22114;-92
2022/01/29 20:03:54;;;;;;;20.35;9.80;;;;;;;2.01;89.42;98484.24;4133555;84;21131;-93
2022/01/29 20:09:54;;;;;;;14.70;7.05;;;;;;;2.09;89.75;98469.88;4137590;84;21309;-92
2022/01/29 20:15:55;;;;;;;13.72;6.90;;;;;;;2.14;89.68;98473.73;4154157;84;21064;-91
2022/01/29 20:22:00;;;;;;;12.70;5.25;;;;;;;2.25;89.61;98480.30;4071502;85;21088;-90
2022/01/29 20:28:01;;;;;;;12.10;5.00;;;;;;;2.34;89.77;98463.44;4002799;87;21175;-91
2022/01/29 20:34:04;;;;;;;10.85;5.40;;;;;;;2.43;89.75;98464.13;3981699;87;21172;-93
2022/01/29 20:40:09;;;;;;;10.55;5.72;;;;;;;2.53;90.24;98463.72;4077015;85;21150;-90
2022/01/29 20:46:11;;;;;;;10.87;5.67;;;;;;;2.67;90.46;98463.39;4050619;86;21126;-91
2022/01/29 20:52:12;;;;;;;12.75;8.45;;;;;;;2.73;91.03;98460.14;4063001;85;21188;-93
2022/01/29 20:58:13;;;;;;;13.72;6.72;;;;;;;2.95;91.17;98415.65;4125028;84;21652;-90
2022/01/29 21:04:15;;;;;;;10.93;6.00;;;;;;;3.07;91.29;98431.30;4128953;84;21102;-90
2022/01/29 21:10:17;;;;;;;10.60;5.22;;;;;;;3.15;91.13;98368.75;4119000;84;21613;-91
2022/01/29 21:16:19;;;;;;;9.23;4.92;;;;;;;3.16;90.80;98335.19;4130875;84;21103;-92
2022/01/29 21:22:20;;;;;;;8.45;4.58;;;;;;;3.14;90.55;98309.84;4140309;83;21123;-91
2022/01/29 21:28:21;;;;;;;9.33;4.20;;;;;;;3.14;90.63;98288.75;4102098;83;21115;-91
2022/01/29 21:34:23;;;;;;;12.13;5.42;;;;;;;3.17;90.55;98282.66;4123272;84;21066;-91
2022/01/29 21:40:25;;;;;;;8.65;4.35;;;;;;;3.13;90.22;98319.64;4163545;84;21094;-91
2022/01/29 21:46:27;;;;;;;11.73;4.90;;;;;;;3.05;90.61;98304.34;4137880;84;21156;-90
2022/01/29 21:52:29;;;;;;;11.18;4.90;;;;;;;3.02;90.62;98299.03;4148776;83;21193;-92
2022/01/29 21:58:30;;;;;;;10.82;4.85;;;;;;;2.94;91.12;98296.48;4122603;84;21676;-91
2022/01/29 22:04:31;;;;;;;10.53;5.08;;;;;;;2.86;91.73;98295.48;4144432;83;21070;-90
2022/01/29 22:10:33;;;;;;;15.25;6.70;;;;;;;2.81;92.64;98290.31;4149819;84;21091;-90
2022/01/29 22:16:35;;;;;;;17.62;7.35;;;;;;;2.77;92.64;98286.70;4131882;84;22194;-93
2022/01/29 22:22:36;;;;;;;15.03;6.95;;;;;;;2.76;93.07;98262.16;4110526;84;21123;-90
2022/01/29 22:28:38;;;;;;;18.27;7.12;;;;;;;2.80;93.46;98242.00;4125280;84;21062;-92
2022/01/29 22:34:40;;;;;;;12.37;6.28;;;;;;;2.83;93.40;98214.28;4102892;83;21132;-91
2022/01/29 22:40:41;;;;;;;11.08;5.70;;;;;;;2.84;93.08;98193.66;4124347;83;21125;-91
2022/01/29 22:46:43;;;;;;;8.53;4.30;;;;;;;2.88;93.61;98178.91;4131964;84;21050;-92
2022/01/29 22:52:44;;;;;;;11.80;4.58;;;;;;;2.93;93.74;98182.69;4155166;84;21402;-91
2022/01/29 22:58:45;;;;;;;11.55;4.12;;;;;;;3.00;94.33;98135.59;4145066;83;21602;-92
2022/01/29 23:04:47;;;;;;;7.08;3.17;;;;;;;3.07;93.99;98111.42;4141392;83;21795;-92
2022/01/29 23:10:56;;;;;;;8.18;3.25;;;;;;;3.14;93.87;98096.75;4044028;86;21075;-92
2022/01/29 23:17:08;;;;;;;6.63;2.60;;;;;;;3.29;93.80;98070.27;4133396;84;21111;-91
2022/01/29 23:23:14;;;;;;;5.22;2.00;;;;;;;3.43;93.73;98043.55;4132321;83;21825;-92
2022/01/29 23:29:10;;;;;;;5.53;1.98;;;;;;;3.57;93.66;98022.83;4139517;84;21108;-94
2022/01/29 23:35:10;;;;;;;4.87;1.32;;;;;;;3.77;93.51;98018.46;4142670;84;21151;-91
2022/01/29 23:41:15;;;;;;;3.22;1.52;;;;;;;4.05;93.02;97986.56;4134603;83;21561;-90
2022/01/29 23:53:36;;;;;;;2.47;1.10;;;;;;;4.33;92.06;97963.30;4114279;84;21100;-91
2022/01/29 23:59:38;;;;;;;3.60;1.10;;;;;;;4.64;91.22;97999.13;4124925;84;21676;-91
